Time;durP1;ratioP1;P1;durP2;ratioP2;P2;SDS_P1;SDS_P2;PMS_P1;PMS_P2;Temp;Humidity;BMP_temperature;BMP_pressure;BME280_temperature;BME280_humidity;BME280_pressure;Samples;Min_cycle;Max_cycle;Signal;HPM_P1;HPM_P2
2022/12/06 00:01:32;;;;;;;1.95;1.83;;;17.20;71.90;;;;;;4978406;28;20022;-76
2022/12/06 00:03:59;;;;;;;1.90;1.63;;;17.20;72.00;;;;;;4978426;28;20022;-76
2022/12/06 00:06:27;;;;;;;1.83;1.73;;;17.10;72.10;;;;;;4978611;28;20033;-76
2022/12/06 00:08:53;;;;;;;1.80;1.70;;;17.10;72.20;;;;;;4978081;28;20069;-76
2022/12/06 00:11:23;;;;;;;4.35;1.40;;;17.20;72.30;;;;;;4978495;28;20018;-76
2022/12/06 00:14:03;;;;;;;2.85;1.60;;;17.10;72.30;;;;;;4978364;28;20519;-76
2022/12/06 00:16:29;;;;;;;1.60;1.50;;;17.10;72.40;;;;;;4995932;28;20477;-75
2022/12/06 00:18:55;;;;;;;2.15;1.95;;;17.10;72.40;;;;;;4978144;28;20029;-75
2022/12/06 00:21:23;;;;;;;1.95;1.85;;;17.10;72.50;;;;;;4978203;28;20031;-76
2022/12/06 00:23:52;;;;;;;1.45;1.35;;;17.10;72.50;;;;;;4995669;28;20488;-76
2022/12/06 00:26:18;;;;;;;3.22;2.05;;;17.00;72.50;;;;;;4977965;28;20030;-76
2022/12/06 00:28:44;;;;;;;1.77;1.67;;;17.10;72.60;;;;;;4977997;28;20019;-75
2022/12/06 00:31:15;;;;;;;2.13;1.48;;;17.00;72.60;;;;;;4978207;28;20034;-76
2022/12/06 00:33:40;;;;;;;1.52;1.42;;;17.00;72.60;;;;;;4978911;28;20380;-75
2022/12/06 00:36:10;;;;;;;1.63;1.50;;;17.00;72.70;;;;;;4977970;28;20023;-76
2022/12/06 00:38:35;;;;;;;2.33;1.60;;;17.00;72.60;;;;;;4977683;28;20026;-76
2022/12/06 00:41:03;;;;;;;1.80;1.67;;;17.00;72.60;;;;;;4978009;28;20547;-76
2022/12/06 00:43:30;;;;;;;1.70;1.60;;;17.00;72.60;;;;;;4978077;28;20030;-75
2022/12/06 00:45:55;;;;;;;2.97;1.60;;;17.00;72.70;;;;;;4977954;28;20037;-75
2022/12/06 00:48:21;;;;;;;3.75;1.55;;;17.00;72.70;;;;;;4994993;28;20019;-75
2022/12/06 00:50:47;;;;;;;4.40;1.90;;;17.00;72.80;;;;;;4995093;28;20022;-75
2022/12/06 00:53:13;;;;;;;2.58;1.65;;;17.00;72.90;;;;;;4977520;28;20558;-76
2022/12/06 00:55:38;;;;;;;3.40;1.70;;;16.90;72.80;;;;;;4977813;28;20029;-76
2022/12/06 00:58:04;;;;;;;1.65;1.52;;;16.90;72.90;;;;;;4994779;28;20030;-76
2022/12/06 01:00:30;;;;;;;2.17;1.63;;;16.90;73.00;;;;;;4977628;28;20033;-75
2022/12/06 01:02:59;;;;;;;3.10;2.08;;;16.90;72.90;;;;;;4977509;28;20062;-75
2022/12/06 01:05:24;;;;;;;2.05;1.80;;;16.90;72.90;;;;;;4994589;28;20161;-75
2022/12/06 01:07:50;;;;;;;2.75;1.83;;;16.90;73.00;;;;;;4977064;28;20121;-75
2022/12/06 01:10:16;;;;;;;1.90;1.80;;;16.90;73.10;;;;;;4994698;28;20427;-76
2022/12/06 01:12:41;;;;;;;1.98;1.75;;;16.90;73.10;;;;;;4977203;28;20034;-75
2022/12/06 01:15:08;;;;;;;1.98;1.80;;;16.90;74.10;;;;;;4977456;28;20034;-75
2022/12/06 01:17:34;;;;;;;2.92;1.98;;;16.90;73.10;;;;;;4977509;28;20026;-76
2022/12/06 01:19:59;;;;;;;1.65;1.55;;;16.80;73.20;;;;;;4977102;28;20069;-76
2022/12/06 01:22:25;;;;;;;1.70;1.60;;;16.90;73.20;;;;;;4977247;28;20049;-76
2022/12/06 01:24:51;;;;;;;2.38;2.00;;;16.80;73.20;;;;;;4994464;28;20493;-76
2022/12/06 01:27:16;;;;;;;1.95;1.80;;;16.80;73.20;;;;;;4977096;28;20030;-76
2022/12/06 01:29:42;;;;;;;1.83;1.73;;;16.80;73.20;;;;;;4977142;28;20109;-76
2022/12/06 01:32:08;;;;;;;1.70;1.60;;;16.80;73.30;;;;;;4994227;28;20485;-76
2022/12/06 01:34:33;;;;;;;2.38;2.08;;;16.80;73.30;;;;;;4994155;28;20022;-75
2022/12/06 01:36:59;;;;;;;3.10;1.67;;;16.80;73.30;;;;;;4994085;28;20025;-76
2022/12/06 01:39:24;;;;;;;2.88;1.83;;;16.80;73.30;;;;;;4994151;28;20031;-75
2022/12/06 01:41:50;;;;;;;6.68;2.08;;;16.80;73.30;;;;;;4994342;28;20061;-75
2022/12/06 01:44:38;;;;;;;2.35;1.90;;;16.80;73.30;;;;;;4994242;28;20041;-75
2022/12/06 01:47:05;;;;;;;3.10;1.80;;;16.80;73.50;;;;;;4994146;28;20034;-75
2022/12/06 01:49:33;;;;;;;2.20;2.00;;;16.80;73.50;;;;;;4976326;28;20481;-75
2022/12/06 01:52:04;;;;;;;2.75;1.80;;;16.80;73.60;;;;;;4976803;28;20457;-75
2022/12/06 01:54:31;;;;;;;1.90;1.70;;;16.80;73.50;;;;;;4976560;28;20432;-75
2022/12/06 01:56:56;;;;;;;1.73;1.63;;;16.80;73.50;;;;;;4976563;28;20069;-75
2022/12/06 01:59:22;;;;;;;2.83;2.00;;;16.80;73.60;;;;;;4976517;28;20026;-75
2022/12/06 02:01:48;;;;;;;4.55;2.28;;;16.70;73.60;;;;;;4993818;28;20057;-75
2022/12/06 02:04:13;;;;;;;1.80;1.70;;;16.70;73.60;;;;;;4976086;28;20049;-75
2022/12/06 02:06:39;;;;;;;1.42;1.33;;;16.70;73.50;;;;;;4976143;28;20042;-75
2022/12/06 02:09:06;;;;;;;2.10;1.80;;;16.70;73.70;;;;;;4976083;28;20065;-75
2022/12/06 02:11:32;;;;;;;2.53;1.55;;;16.70;73.60;;;;;;4975851;28;20122;-75
2022/12/06 02:13:58;;;;;;;1.83;1.70;;;16.70;73.70;;;;;;4993463;28;20493;-75
2022/12/06 02:16:42;;;;;;;1.83;1.73;;;16.70;73.70;;;;;;4976197;28;20029;-75
2022/12/06 02:19:23;;;;;;;1.95;1.75;;;16.70;73.60;;;;;;4975818;28;20022;-75
2022/12/06 02:22:24;;;;;;;2.75;1.90;;;16.70;73.60;;;;;;4993675;28;20030;-76
2022/12/06 02:25:12;;;;;;;1.70;1.60;;;16.70;73.70;;;;;;4976265;28;20113;-76
2022/12/06 02:28:09;;;;;;;1.65;1.55;;;16.70;73.70;;;;;;4993434;28;20488;-76
2022/12/06 02:30:42;;;;;;;1.80;1.70;;;16.70;73.80;;;;;;4933288;29;20036;-76
2022/12/06 02:33:31;;;;;;;2.30;2.10;;;16.70;73.80;;;;;;4917486;29;20058;-76
2022/12/06 02:36:22;;;;;;;3.05;1.65;;;16.70;73.80;;;;;;4912745;29;20130;-76
2022/12/06 02:38:52;;;;;;;1.77;1.65;;;16.70;73.80;;;;;;4912007;29;20151;-76
2022/12/06 02:41:37;;;;;;;2.25;2.05;;;16.70;73.80;;;;;;4902095;29;20039;-76
2022/12/06 02:44:04;;;;;;;2.20;2.00;;;16.70;73.80;;;;;;4901669;29;20032;-76
2022/12/06 02:46:31;;;;;;;2.30;2.10;;;16.70;73.80;;;;;;4901837;29;20032;-76
2022/12/06 02:48:58;;;;;;;3.22;1.98;;;16.60;73.80;;;;;;4917036;29;20044;-76
2022/12/06 02:51:23;;;;;;;2.95;1.67;;;16.70;73.80;;;;;;4917306;29;20090;-75
2022/12/06 02:53:50;;;;;;;2.10;1.90;;;16.70;73.80;;;;;;4901686;29;20514;-76
2022/12/06 02:56:16;;;;;;;1.80;1.70;;;16.60;73.70;;;;;;4901524;29;20082;-76
2022/12/06 02:58:42;;;;;;;1.70;1.60;;;16.60;73.70;;;;;;4901483;29;20067;-76
2022/12/06 03:01:15;;;;;;;1.65;1.55;;;16.60;73.70;;;;;;4917421;29;20043;-75
2022/12/06 03:03:54;;;;;;;2.30;2.10;;;16.60;73.80;;;;;;4916865;29;20495;-76
2022/12/06 03:06:47;;;;;;;1.90;1.80;;;16.60;73.80;;;;;;4916906;29;20038;-76
2022/12/06 03:09:29;;;;;;;;;;;16.60;73.70;;;;;;4993054;28;20034;-75
2022/12/06 03:12:21;;;;;;;1.77;1.67;;;16.60;73.90;;;;;;4975548;28;20388;-75
2022/12/06 03:14:53;;;;;;;2.08;1.90;;;16.60;73.90;;;;;;4992245;28;20034;-75
2022/12/06 03:17:39;;;;;;;1.90;1.80;;;16.60;73.90;;;;;;4975228;28;20026;-75
2022/12/06 03:20:18;;;;;;;1.67;1.58;;;16.60;73.90;;;;;;4973393;28;20065;-75
2022/12/06 03:22:46;;;;;;;1.90;1.70;;;16.60;74.00;;;;;;4957552;28;20018;-75
2022/12/06 03:25:11;;;;;;;1.90;1.73;;;16.60;74.00;;;;;;4977259;28;20019;-76
2022/12/06 03:27:38;;;;;;;1.80;1.67;;;16.60;74.00;;;;;;4975806;28;20378;-75
2022/12/06 03:30:08;;;;;;;1.90;1.70;;;16.60;73.90;;;;;;4975901;28;20025;-75
2022/12/06 03:32:34;;;;;;;1.98;1.77;;;16.60;73.90;;;;;;4975644;28;20059;-75
2022/12/06 03:35:02;;;;;;;1.92;1.83;;;16.60;73.90;;;;;;4975921;28;20058;-75
2022/12/06 03:37:29;;;;;;;2.13;1.60;;;16.60;73.90;;;;;;4975746;28;20030;-75
2022/12/06 03:40:22;;;;;;;1.70;1.60;;;16.60;73.90;;;;;;4975590;28;20042;-75
2022/12/06 03:42:48;;;;;;;1.75;1.65;;;16.60;74.00;;;;;;4975785;28;20054;-75
2022/12/06 03:45:13;;;;;;;1.60;1.50;;;16.60;73.90;;;;;;4975551;28;20027;-76
2022/12/06 03:48:02;;;;;;;1.65;1.55;;;16.60;74.00;;;;;;4976947;28;20058;-75
2022/12/06 03:50:31;;;;;;;1.77;1.65;;;16.60;74.00;;;;;;4959308;28;20409;-75
2022/12/06 03:52:56;;;;;;;1.83;1.73;;;16.60;74.00;;;;;;4975632;28;20050;-75
2022/12/06 03:55:22;;;;;;;2.15;1.80;;;16.60;74.00;;;;;;4975424;28;20066;-76
2022/12/06 03:57:48;;;;;;;3.95;1.90;;;16.60;74.00;;;;;;4976797;28;20034;-76
2022/12/06 04:00:15;;;;;;;1.73;1.63;;;16.60;74.00;;;;;;4975107;28;20042;-76
2022/12/06 04:02:41;;;;;;;1.80;1.60;;;16.60;74.20;;;;;;4975439;28;20023;-76
2022/12/06 04:05:06;;;;;;;1.70;1.60;;;16.50;74.00;;;;;;4976533;28;20482;-76
2022/12/06 04:07:32;;;;;;;1.70;1.60;;;16.50;74.00;;;;;;4976988;28;20046;-76
2022/12/06 04:10:03;;;;;;;2.10;1.60;;;16.50;74.00;;;;;;4978437;28;20039;-76
2022/12/06 04:15:14;;;;;;;1.90;1.80;;;16.60;74.10;;;;;;4980985;28;20533;-76
2022/12/06 04:20:25;;;;;;;2.25;1.80;;;16.60;74.10;;;;;;4980950;28;20061;-76
2022/12/06 04:23:03;;;;;;;2.03;1.83;;;16.50;74.10;;;;;;4978388;28;20022;-75
2022/12/06 04:25:33;;;;;;;2.40;1.60;;;16.50;74.10;;;;;;4979717;28;20034;-75
2022/12/06 04:38:55;;;;;;;1.98;1.80;;;16.50;74.10;;;;;;4980901;28;20520;-75
2022/12/06 04:44:05;;;;;;;2.05;1.95;;;16.50;74.20;;;;;;4995143;28;20530;-75
2022/12/06 04:46:31;;;;;;;2.10;1.90;;;16.50;74.20;;;;;;4977892;28;20022;-75
2022/12/06 04:48:57;;;;;;;1.73;1.60;;;16.50;74.20;;;;;;4977827;28;20443;-75
2022/12/06 04:51:22;;;;;;;1.88;1.70;;;16.50;74.20;;;;;;4995014;28;20034;-75
2022/12/06 04:53:48;;;;;;;1.90;1.80;;;16.50;74.20;;;;;;4977936;28;20018;-75
2022/12/06 04:56:14;;;;;;;1.90;1.80;;;16.50;74.20;;;;;;4977742;28;20073;-75
2022/12/06 04:58:40;;;;;;;2.03;1.75;;;16.50;74.10;;;;;;4994743;28;20030;-75
2022/12/06 05:01:06;;;;;;;2.35;2.10;;;16.50;74.10;;;;;;4977529;28;20463;-75
2022/12/06 05:03:31;;;;;;;1.75;1.65;;;16.50;74.20;;;;;;4994884;28;20105;-75
2022/12/06 05:05:57;;;;;;;1.73;1.63;;;16.50;74.20;;;;;;4994835;28;20121;-76
2022/12/06 05:08:22;;;;;;;1.90;1.80;;;16.50;74.20;;;;;;4994189;28;20046;-75
2022/12/06 05:10:48;;;;;;;1.60;1.50;;;16.40;74.10;;;;;;4994906;28;20033;-76
2022/12/06 05:13:15;;;;;;;2.00;1.80;;;16.40;75.20;;;;;;4977293;28;20027;-75
2022/12/06 05:15:51;;;;;;;1.70;1.60;;;16.50;74.20;;;;;;4982846;28;20023;-75
2022/12/06 05:18:16;;;;;;;1.80;1.70;;;16.50;74.20;;;;;;4969758;28;20026;-76
2022/12/06 05:20:42;;;;;;;2.28;1.77;;;16.40;74.00;;;;;;4994965;28;20098;-76
2022/12/06 05:23:07;;;;;;;1.90;1.80;;;16.50;74.10;;;;;;4995026;28;20387;-76
2022/12/06 05:25:33;;;;;;;2.05;1.85;;;16.50;74.10;;;;;;4993770;28;20468;-75
2022/12/06 05:27:59;;;;;;;1.92;1.83;;;16.50;74.00;;;;;;4993442;28;20027;-76
2022/12/06 05:30:24;;;;;;;2.30;1.73;;;16.40;74.10;;;;;;4994699;28;20081;-76
2022/12/06 05:32:50;;;;;;;2.30;2.10;;;16.50;74.20;;;;;;4995013;28;20070;-75
2022/12/06 05:35:16;;;;;;;3.70;1.92;;;16.40;74.20;;;;;;4994832;28;20030;-76
2022/12/06 05:37:41;;;;;;;2.10;1.95;;;16.40;74.20;;;;;;4994654;28;20489;-76
2022/12/06 05:40:07;;;;;;;3.83;1.90;;;16.40;74.30;;;;;;4994875;28;20034;-75
2022/12/06 05:42:33;;;;;;;5.18;1.80;;;16.40;74.20;;;;;;4994568;28;20026;-75
2022/12/06 05:44:58;;;;;;;2.30;1.90;;;16.40;74.30;;;;;;4993958;28;20572;-75
2022/12/06 05:47:24;;;;;;;2.30;2.10;;;16.40;74.20;;;;;;4994394;28;20105;-76
2022/12/06 05:49:50;;;;;;;2.50;1.80;;;16.40;74.20;;;;;;4994481;28;20026;-76
2022/12/06 05:52:15;;;;;;;2.08;1.88;;;16.40;74.30;;;;;;4994433;28;20022;-75
2022/12/06 05:54:41;;;;;;;2.00;1.80;;;16.40;74.30;;;;;;4977153;28;20476;-75
2022/12/06 05:57:07;;;;;;;1.70;1.60;;;16.40;74.30;;;;;;4994304;28;20072;-75
2022/12/06 05:59:32;;;;;;;4.32;2.10;;;16.40;74.30;;;;;;4993101;28;20058;-75
2022/12/06 06:01:58;;;;;;;2.03;1.88;;;16.40;74.30;;;;;;4994385;28;20477;-75
2022/12/06 06:04:23;;;;;;;2.05;1.85;;;16.40;74.30;;;;;;4994397;28;20508;-75
2022/12/06 06:06:50;;;;;;;1.83;1.63;;;16.40;74.20;;;;;;4992774;28;20080;-76
2022/12/06 06:09:16;;;;;;;4.05;1.67;;;16.40;74.20;;;;;;4994095;28;20030;-76
2022/12/06 06:11:41;;;;;;;1.88;1.70;;;16.40;74.20;;;;;;4993929;28;20527;-76
2022/12/06 06:14:07;;;;;;;2.15;1.95;;;16.40;74.20;;;;;;4994166;28;20037;-75
2022/12/06 06:16:33;;;;;;;1.60;1.50;;;16.40;74.20;;;;;;4992806;28;20105;-76
2022/12/06 06:19:00;;;;;;;2.22;2.03;;;16.40;74.30;;;;;;4994033;28;20436;-76
2022/12/06 06:21:26;;;;;;;1.95;1.83;;;16.40;74.20;;;;;;4976797;28;20018;-76
2022/12/06 06:23:52;;;;;;;2.03;1.88;;;16.40;74.30;;;;;;4976755;28;20073;-76
2022/12/06 06:26:17;;;;;;;1.90;1.67;;;16.40;74.30;;;;;;4993674;28;20440;-76
2022/12/06 06:28:43;;;;;;;1.90;1.80;;;16.40;74.30;;;;;;4983149;28;20129;-75
2022/12/06 06:31:09;;;;;;;3.10;1.83;;;16.40;74.30;;;;;;4993711;28;20097;-76
2022/12/06 06:33:35;;;;;;;2.80;2.00;;;16.40;74.50;;;;;;4993657;28;20416;-75
2022/12/06 06:36:00;;;;;;;2.97;1.83;;;16.40;74.40;;;;;;4977835;28;20026;-76
2022/12/06 06:38:26;;;;;;;2.13;2.00;;;16.40;74.40;;;;;;4991982;28;20037;-75
2022/12/06 06:40:52;;;;;;;2.25;1.83;;;16.40;74.40;;;;;;4988567;28;20042;-76
2022/12/06 06:43:18;;;;;;;1.85;1.75;;;16.40;74.40;;;;;;4993472;28;20035;-76
2022/12/06 06:45:54;;;;;;;2.10;1.90;;;16.40;74.30;;;;;;4992902;28;20492;-76
2022/12/06 06:48:20;;;;;;;2.05;1.95;;;16.40;74.30;;;;;;4993202;28;20030;-76
2022/12/06 06:50:46;;;;;;;2.30;2.10;;;16.40;74.10;;;;;;4975618;28;20034;-76
2022/12/06 06:53:12;;;;;;;2.60;2.40;;;16.40;73.90;;;;;;4991934;28;20031;-76
2022/12/06 06:55:37;;;;;;;3.28;2.40;;;16.40;73.70;;;;;;4992893;28;20523;-76
2022/12/06 06:58:04;;;;;;;2.65;2.45;;;16.40;73.30;;;;;;4992709;28;20397;-76
2022/12/06 07:00:30;;;;;;;2.38;2.17;;;16.40;73.20;;;;;;4992060;28;20023;-76
2022/12/06 07:02:56;;;;;;;3.00;2.72;;;16.40;72.90;;;;;;4992961;28;20096;-77
2022/12/06 07:05:21;;;;;;;7.43;3.40;;;16.30;72.50;;;;;;4989096;28;20497;-77
2022/12/06 07:07:48;;;;;;;12.57;3.78;;;16.30;72.30;;;;;;4967797;28;20042;-77
2022/12/06 07:10:13;;;;;;;10.20;3.83;;;16.30;72.40;;;;;;4975311;28;20408;-77
2022/12/06 07:12:39;;;;;;;8.57;3.30;;;16.30;72.40;;;;;;4991794;28;20027;-77
2022/12/06 07:15:05;;;;;;;8.55;3.85;;;16.30;72.20;;;;;;4975763;28;20058;-77
2022/12/06 07:17:31;;;;;;;12.30;4.22;;;16.30;72.20;;;;;;4956286;28;20019;-77
2022/12/06 07:19:56;;;;;;;10.93;4.65;;;16.30;72.10;;;;;;4955946;28;20118;-77
2022/12/06 07:22:22;;;;;;;8.25;3.92;;;16.30;72.10;;;;;;4980585;28;20434;-77
2022/12/06 07:24:48;;;;;;;11.30;3.80;;;16.30;71.90;;;;;;4992407;28;20496;-77
2022/12/06 07:27:13;;;;;;;6.47;4.13;;;16.30;71.90;;;;;;4975369;28;20030;-77
2022/12/06 07:29:39;;;;;;;8.57;4.22;;;16.30;71.90;;;;;;4992571;28;20030;-77
2022/12/06 07:32:05;;;;;;;9.43;4.15;;;16.30;71.80;;;;;;4992618;28;20485;-77
2022/12/06 07:34:30;;;;;;;8.23;4.45;;;16.20;71.70;;;;;;4992666;28;20023;-77
2022/12/06 07:36:56;;;;;;;14.55;4.93;;;16.30;71.70;;;;;;4992487;28;20023;-77
2022/12/06 07:39:22;;;;;;;11.07;4.68;;;16.30;71.70;;;;;;4986052;28;20401;-77
2022/12/06 07:47:37;;;;;;;5.90;4.07;;;16.30;71.60;;;;;;4951654;29;20046;-77
2022/12/06 07:50:03;;;;;;;10.90;4.80;;;16.30;71.60;;;;;;4935890;29;20031;-77
2022/12/06 07:52:35;;;;;;;11.10;4.65;;;16.30;71.50;;;;;;4935403;29;20047;-77
2022/12/06 07:55:00;;;;;;;10.80;4.55;;;16.20;71.50;;;;;;4935751;29;20059;-77
2022/12/06 07:57:26;;;;;;;11.50;5.18;;;16.20;71.50;;;;;;4935791;29;20090;-77
2022/12/06 07:59:52;;;;;;;8.25;4.38;;;16.20;71.50;;;;;;4935781;29;20528;-77
2022/12/06 08:02:19;;;;;;;10.77;4.68;;;16.20;71.40;;;;;;4935558;29;20039;-77
2022/12/06 08:04:45;;;;;;;12.05;4.57;;;16.20;71.30;;;;;;4951579;29;20525;-77
2022/12/06 08:07:10;;;;;;;9.52;4.85;;;16.20;71.30;;;;;;4966133;28;20185;-77
2022/12/06 08:09:37;;;;;;;10.75;4.57;;;16.20;71.30;;;;;;4973284;28;20418;-77
2022/12/06 08:12:03;;;;;;;9.85;4.60;;;16.20;71.40;;;;;;4974323;28;20050;-77
2022/12/06 08:14:29;;;;;;;10.35;5.22;;;16.20;71.30;;;;;;4953134;28;20409;-77
2022/12/06 08:16:54;;;;;;;7.70;4.50;;;16.20;71.30;;;;;;4957886;28;20030;-77
2022/12/06 08:19:20;;;;;;;8.63;4.40;;;16.20;71.30;;;;;;4993828;28;20572;-77
2022/12/06 08:21:46;;;;;;;8.77;4.53;;;16.20;71.30;;;;;;4974758;28;20110;-77
2022/12/06 08:24:12;;;;;;;6.70;4.43;;;16.20;71.30;;;;;;4958982;28;20034;-77
2022/12/06 08:26:38;;;;;;;6.97;4.45;;;16.20;71.30;;;;;;4959050;28;20034;-77
2022/12/06 08:29:03;;;;;;;10.07;4.78;;;16.20;71.30;;;;;;4976047;28;20493;-77
2022/12/06 08:31:33;;;;;;;8.10;4.70;;;16.20;71.30;;;;;;4988881;28;20030;-77
2022/12/06 08:33:59;;;;;;;6.63;4.22;;;16.20;71.30;;;;;;4978305;28;20030;-77
2022/12/06 08:36:24;;;;;;;7.50;4.28;;;16.20;71.20;;;;;;4977886;28;20030;-77
2022/12/06 08:38:51;;;;;;;5.78;4.00;;;16.20;71.20;;;;;;4995268;28;20499;-77
2022/12/06 08:44:01;;;;;;;5.07;4.15;;;16.20;71.20;;;;;;4980682;28;20064;-77
2022/12/06 08:46:27;;;;;;;7.32;4.20;;;16.10;71.10;;;;;;4995279;28;20094;-77
2022/12/06 08:48:52;;;;;;;8.02;4.75;;;16.20;71.10;;;;;;4962204;28;20047;-77
2022/12/06 08:51:18;;;;;;;7.32;4.70;;;16.20;71.10;;;;;;4958154;28;20113;-77
2022/12/06 08:53:44;;;;;;;7.47;4.40;;;16.20;71.00;;;;;;4975642;28;20019;-77
2022/12/06 08:56:09;;;;;;;7.22;4.78;;;16.20;71.00;;;;;;4975658;28;20026;-77
2022/12/06 08:58:35;;;;;;;9.38;4.72;;;16.10;71.00;;;;;;4942528;28;20019;-77
2022/12/06 09:01:08;;;;;;;5.93;4.50;;;16.20;71.00;;;;;;4958463;28;20069;-77
2022/12/06 09:03:33;;;;;;;;;;;16.10;71.00;;;;;;4958611;28;20055;-77
2022/12/06 09:06:01;;;;;;;6.30;4.70;;;16.10;71.00;;;;;;4980547;28;19940;-77
2022/12/06 09:08:27;;;;;;;8.07;4.68;;;16.10;70.90;;;;;;4994720;28;20046;-77
2022/12/06 09:10:52;;;;;;;7.93;4.30;;;16.10;70.90;;;;;;4994718;28;20053;-77
2022/12/06 09:13:18;;;;;;;5.30;4.38;;;16.10;70.90;;;;;;4994907;28;20022;-77
2022/12/06 09:15:44;;;;;;;8.30;4.32;;;16.20;70.90;;;;;;4994628;28;20022;-77
2022/12/06 09:18:09;;;;;;;6.30;4.60;;;16.10;70.80;;;;;;4977267;28;20026;-77
2022/12/06 09:20:41;;;;;;;6.70;4.10;;;16.10;70.80;;;;;;4994235;28;20018;-77
2022/12/06 09:23:06;;;;;;;7.93;4.50;;;16.10;70.70;;;;;;4977019;28;20503;-77
2022/12/06 09:25:32;;;;;;;5.10;4.18;;;16.10;70.70;;;;;;4977169;28;20022;-77
2022/12/06 09:27:58;;;;;;;5.00;3.92;;;16.10;70.70;;;;;;4976973;28;20018;-77
2022/12/06 09:30:24;;;;;;;5.10;4.00;;;16.10;70.70;;;;;;4994415;28;20404;-77
2022/12/06 09:32:50;;;;;;;9.98;4.43;;;16.10;70.70;;;;;;4994135;28;20023;-77
2022/12/06 09:35:16;;;;;;;5.38;4.00;;;16.10;70.60;;;;;;4994171;28;20022;-77
2022/12/06 09:37:41;;;;;;;5.20;3.70;;;16.10;70.60;;;;;;4994440;28;20030;-77
2022/12/06 09:40:13;;;;;;;4.40;4.00;;;16.10;70.70;;;;;;4976794;28;20378;-77
2022/12/06 09:43:10;;;;;;;4.35;3.78;;;16.10;70.60;;;;;;4976658;28;20485;-77
2022/12/06 09:45:48;;;;;;;5.10;4.43;;;16.10;70.60;;;;;;4934079;29;20039;-77
2022/12/06 09:48:44;;;;;;;4.88;3.90;;;16.10;70.60;;;;;;4933753;29;20055;-77
2022/12/06 09:51:24;;;;;;;5.65;4.15;;;16.10;70.50;;;;;;4918204;29;20024;-77
2022/12/06 09:53:53;;;;;;;4.95;3.63;;;16.10;70.50;;;;;;4933904;29;20070;-77
2022/12/06 09:56:35;;;;;;;5.95;4.07;;;16.10;70.50;;;;;;4933915;29;20036;-77
2022/12/06 09:59:12;;;;;;;5.25;3.78;;;16.10;70.40;;;;;;4903141;29;20130;-77
2022/12/06 10:01:55;;;;;;;5.55;4.15;;;16.10;70.50;;;;;;4902728;29;20659;-77
2022/12/06 10:04:39;;;;;;;6.25;3.78;;;16.10;70.40;;;;;;4933744;29;20032;-77
2022/12/06 10:07:29;;;;;;;5.75;3.80;;;16.10;70.50;;;;;;4933313;29;20059;-77
2022/12/06 10:10:18;;;;;;;5.60;3.85;;;16.10;70.40;;;;;;4917833;29;20065;-77
2022/12/06 10:13:07;;;;;;;6.45;4.00;;;16.10;70.40;;;;;;4919276;29;20494;-77
2022/12/06 10:15:54;;;;;;;5.68;4.05;;;16.10;70.30;;;;;;4877102;29;20041;-77
2022/12/06 10:18:57;;;;;;;4.78;3.58;;;16.10;70.40;;;;;;4877068;29;20093;-77
2022/12/06 10:21:25;;;;;;;3.72;3.42;;;16.10;70.30;;;;;;4906353;29;20034;-77
2022/12/06 10:24:17;;;;;;;4.85;4.35;;;16.10;70.30;;;;;;4898933;29;20086;-77
2022/12/06 10:26:52;;;;;;;4.82;3.60;;;16.10;70.20;;;;;;4911039;29;20059;-77
2022/12/06 10:29:18;;;;;;;6.43;3.47;;;16.10;70.30;;;;;;4898541;29;20116;-77
2022/12/06 10:32:03;;;;;;;3.70;3.38;;;16.10;70.30;;;;;;4913878;29;20111;-77
2022/12/06 10:34:55;;;;;;;5.05;3.67;;;16.10;70.20;;;;;;4898904;29;20032;-77
2022/12/06 10:37:24;;;;;;;5.07;3.80;;;16.10;70.10;;;;;;4914287;29;20020;-77
2022/12/06 10:40:15;;;;;;;4.35;3.72;;;16.10;70.10;;;;;;4898553;29;20078;-77
2022/12/06 10:42:58;;;;;;;6.35;4.00;;;16.10;70.10;;;;;;4899808;29;20036;-77
2022/12/06 10:48:47;;;;;;;4.15;3.75;;;16.10;70.10;;;;;;4900913;29;20543;-77
2022/12/06 10:51:25;;;;;;;4.43;3.20;;;16.10;70.10;;;;;;4900038;29;20024;-77
2022/12/06 10:53:54;;;;;;;4.15;3.47;;;16.10;70.10;;;;;;4940756;28;20043;-77
2022/12/06 10:56:28;;;;;;;4.28;3.40;;;16.10;70.10;;;;;;4956706;28;20019;-77
2022/12/06 10:59:03;;;;;;;4.57;3.95;;;16.10;70.00;;;;;;4925017;28;20386;-77
2022/12/06 11:01:33;;;;;;;4.18;3.78;;;16.10;70.10;;;;;;4940820;28;20485;-77
2022/12/06 11:04:34;;;;;;;6.28;3.47;;;16.10;70.00;;;;;;4940272;28;20031;-77
2022/12/06 11:07:31;;;;;;;5.30;3.38;;;16.10;70.00;;;;;;4930062;29;20094;-77
2022/12/06 11:09:57;;;;;;;3.75;3.45;;;16.10;70.00;;;;;;4951343;29;20036;-77
2022/12/06 11:12:30;;;;;;;4.00;3.38;;;16.10;69.90;;;;;;4936321;29;20035;-77
2022/12/06 11:15:07;;;;;;;;;;;16.10;70.00;;;;;;4936842;29;20023;-77
2022/12/06 11:17:35;;;;;;;4.88;3.55;;;16.10;69.90;;;;;;4952091;29;19969;-77
2022/12/06 11:20:13;;;;;;;4.47;3.50;;;16.10;70.00;;;;;;4936286;29;20135;-77
2022/12/06 11:22:47;;;;;;;4.10;3.50;;;16.10;70.00;;;;;;4939617;29;20110;-77
2022/12/06 11:25:22;;;;;;;4.88;3.60;;;16.10;69.90;;;;;;4917406;29;20044;-77
2022/12/06 11:28:11;;;;;;;4.82;3.45;;;16.10;69.90;;;;;;4917969;29;20413;-77
2022/12/06 11:30:37;;;;;;;3.97;3.58;;;16.10;69.80;;;;;;4916611;29;20568;-77
2022/12/06 11:33:03;;;;;;;4.38;3.65;;;16.10;69.90;;;;;;4932722;29;20108;-77
2022/12/06 11:35:29;;;;;;;3.60;3.30;;;16.10;69.80;;;;;;4916951;29;20406;-77
2022/12/06 11:37:59;;;;;;;4.32;3.67;;;16.10;69.80;;;;;;4917092;29;20036;-77
2022/12/06 11:40:35;;;;;;;5.10;3.42;;;16.10;69.80;;;;;;4919379;29;20039;-77
2022/12/06 11:43:04;;;;;;;3.53;3.22;;;16.10;69.80;;;;;;4934161;29;20051;-77
2022/12/06 11:45:34;;;;;;;3.90;3.50;;;16.10;69.80;;;;;;4937199;29;20524;-77
2022/12/06 11:48:04;;;;;;;4.47;3.75;;;16.10;69.70;;;;;;4937184;29;20115;-77
2022/12/06 11:50:29;;;;;;;5.55;4.00;;;16.10;69.80;;;;;;4937160;29;20027;-77
2022/12/06 11:53:04;;;;;;;5.50;3.65;;;16.10;69.80;;;;;;4937173;29;20398;-77
2022/12/06 11:55:33;;;;;;;4.30;3.90;;;16.10;69.70;;;;;;4937110;29;20024;-77
2022/12/06 11:58:25;;;;;;;3.85;3.45;;;16.10;69.70;;;;;;4937071;29;20474;-77
2022/12/06 12:00:58;;;;;;;5.57;4.18;;;16.10;69.70;;;;;;4937072;29;20518;-77
2022/12/06 12:03:33;;;;;;;3.60;3.30;;;16.10;69.70;;;;;;4937073;29;20071;-77
2022/12/06 12:06:21;;;;;;;3.63;3.33;;;16.10;69.70;;;;;;4943328;28;20023;-77
2022/12/06 12:09:05;;;;;;;4.25;3.70;;;16.10;69.70;;;;;;4956012;29;20086;-77
2022/12/06 12:11:32;;;;;;;5.53;3.80;;;16.10;69.70;;;;;;4956001;29;20027;-77
2022/12/06 12:14:00;;;;;;;4.05;3.70;;;16.10;69.70;;;;;;4955945;29;20019;-77
2022/12/06 12:16:27;;;;;;;3.80;3.50;;;16.10;69.70;;;;;;4955951;29;20466;-77
2022/12/06 12:18:54;;;;;;;3.25;2.95;;;16.10;69.70;;;;;;4955982;29;20032;-77
2022/12/06 12:21:31;;;;;;;3.22;2.92;;;16.10;70.70;;;;;;4953830;29;20035;-77
2022/12/06 12:23:57;;;;;;;4.22;3.38;;;16.10;69.70;;;;;;4936829;29;20039;-77
2022/12/06 12:26:23;;;;;;;4.07;3.67;;;16.10;69.70;;;;;;4936669;29;20491;-77
2022/12/06 12:29:17;;;;;;;3.58;3.08;;;16.10;69.70;;;;;;4937482;29;20483;-77
2022/12/06 12:31:55;;;;;;;4.10;3.13;;;16.10;69.70;;;;;;4936824;29;20027;-77
2022/12/06 12:34:27;;;;;;;3.75;3.38;;;16.10;69.70;;;;;;4937524;29;20020;-77
2022/12/06 12:36:59;;;;;;;3.70;3.28;;;16.10;69.70;;;;;;4936335;29;20062;-77
2022/12/06 12:39:37;;;;;;;3.40;3.10;;;16.10;69.60;;;;;;4920722;29;20035;-77
2022/12/06 12:42:03;;;;;;;3.65;3.30;;;16.10;69.60;;;;;;4936085;29;20055;-77
2022/12/06 12:44:36;;;;;;;3.95;3.45;;;16.10;69.60;;;;;;4936344;29;20525;-77
2022/12/06 12:47:22;;;;;;;3.38;3.08;;;16.10;69.60;;;;;;4936354;29;20038;-77
2022/12/06 12:50:17;;;;;;;3.88;3.50;;;16.10;69.60;;;;;;4937107;29;20044;-77
2022/12/06 12:52:43;;;;;;;3.88;3.20;;;16.10;69.60;;;;;;4936537;29;20487;-77
2022/12/06 12:55:11;;;;;;;3.42;3.13;;;16.10;69.60;;;;;;4935766;29;20075;-77
2022/12/06 12:57:37;;;;;;;3.10;2.90;;;16.10;69.60;;;;;;4936945;29;20023;-77
2022/12/06 13:00:06;;;;;;;3.38;3.08;;;16.20;69.70;;;;;;4936186;29;20079;-77
2022/12/06 13:02:31;;;;;;;4.30;3.33;;;16.10;69.70;;;;;;4937008;29;20032;-77
2022/12/06 13:05:27;;;;;;;3.55;3.22;;;16.20;69.60;;;;;;4936037;29;20498;-77
2022/12/06 13:07:56;;;;;;;3.30;3.00;;;16.10;69.60;;;;;;4982707;28;20060;-77
2022/12/06 13:10:33;;;;;;;3.28;2.97;;;16.10;69.60;;;;;;4977481;28;20456;-77
2022/12/06 13:13:00;;;;;;;3.17;2.97;;;16.20;69.60;;;;;;4977217;28;20022;-77
2022/12/06 13:15:37;;;;;;;3.17;2.88;;;16.10;69.60;;;;;;4994659;28;20019;-77
2022/12/06 13:18:13;;;;;;;3.15;2.88;;;16.10;69.60;;;;;;4977348;28;20066;-77
2022/12/06 13:20:38;;;;;;;3.80;3.20;;;16.10;69.60;;;;;;4977445;28;20041;-77
2022/12/06 13:23:12;;;;;;;3.30;3.00;;;16.10;69.60;;;;;;4961493;28;20433;-77
2022/12/06 13:25:38;;;;;;;3.70;3.30;;;16.10;70.10;;;;;;4942499;28;20018;-77
2022/12/06 13:28:05;;;;;;;3.20;2.90;;;16.20;69.60;;;;;;4975019;28;20054;-77
2022/12/06 13:30:30;;;;;;;3.15;2.95;;;16.10;69.50;;;;;;4957838;28;20105;-77
2022/12/06 13:32:58;;;;;;;2.80;2.60;;;16.10;69.60;;;;;;4941523;28;20110;-77
2022/12/06 13:35:29;;;;;;;3.28;2.85;;;16.10;69.50;;;;;;4957651;28;20283;-77